Nacc Panarea — 9HBJ9 — position and weather

sailwx.info

Track history (hours):
 
Tides and Currents Weather Stations Pressure Air Temp Water Temp Dewpoint Dewpoint Depression Visibility Wind Speed Wind Dir Waves Ship Positions

Nacc Panarea

Last reported at 2017-Sep-08 16:31 UTC. Time now 2017-Sep-20 01:54 UTC.
Position N 17°06' W 062°00'.
Warning: this ship's position is 11 days out of date.

Length 102 m; draft 4.4 m.

Type: Cargo ship. MMSI: 256740000.

Date/timePositionNaut miles runAvg speedWind from/ knotsBaromVisibWave heightAir tempDewpointWater temp
2017-Sep-08 16:31N 17°06' W 062°00'012.0
2017-Sep-08 16:30N 17°06' W 062°00'510.6
2017-Sep-08 16:00N 17°09' W 061°56'5 9.9
2017-Sep-08 15:30N 17°11' W 061°51'4 7.9
2017-Sep-08 15:00N 17°10' W 061°47'2 4.9
2017-Sep-08 14:30N 17°08' W 061°45'0 0.0
2017-Sep-08 14:00N 17°08' W 061°45'0 0.0
2017-Sep-08 13:30N 17°08' W 061°45'0 0.0
2017-Sep-08 13:00N 17°08' W 061°45'0 0.0
2017-Sep-08 12:30N 17°08' W 061°45'0 0.0
2017-Sep-08 12:00N 17°08' W 061°45'0 0.0
2017-Sep-08 11:30N 17°08' W 061°45'0 0.0
2017-Sep-08 11:00N 17°08' W 061°45'0 0.0
2017-Sep-08 10:30N 17°08' W 061°45'0 0.0
2017-Sep-08 09:57N 17°08' W 061°45'0 0.0
2017-Sep-08 09:30N 17°08' W 061°45'0 0.0
2017-Sep-08 09:00N 17°08' W 061°45'0 0.0
2017-Sep-08 08:30N 17°08' W 061°45'0 0.0
2017-Sep-08 08:00N 17°08' W 061°45'0 0.0
2017-Sep-08 07:30N 17°08' W 061°45'0 0.0
2017-Sep-08 06:57N 17°08' W 061°45'0 0.0
2017-Sep-08 06:30N 17°08' W 061°45'0 0.0
2017-Sep-08 06:00N 17°08' W 061°45'0 0.0
2017-Sep-08 05:27N 17°08' W 061°45'0 0.0
2017-Sep-08 05:00N 17°08' W 061°45'0 0.0
2017-Sep-08 04:30N 17°08' W 061°45'0 0.0
2017-Sep-08 04:00N 17°08' W 061°45'0 0.0
2017-Sep-08 03:30N 17°08' W 061°45'0 0.0
2017-Sep-08 03:00N 17°08' W 061°45'0 0.0
2017-Sep-08 02:30N 17°08' W 061°45'0 0.0
2017-Sep-08 01:57N 17°08' W 061°45'0 0.0
2017-Sep-08 01:30N 17°08' W 061°45'0 0.0
2017-Sep-08 01:00N 17°08' W 061°45'0 0.0
2017-Sep-08 00:30N 17°08' W 061°45'0 0.0
2017-Sep-08 00:00N 17°08' W 061°45'0 0.0
2017-Sep-07 23:30N 17°08' W 061°45'0 0.0
2017-Sep-07 22:57N 17°08' W 061°45'0 0.0
2017-Sep-07 22:30N 17°08' W 061°45'0 0.0
2017-Sep-07 22:00N 17°08' W 061°45'0 0.0
2017-Sep-07 21:30N 17°08' W 061°45'0 0.0
2017-Sep-07 21:00N 17°08' W 061°45'0 0.0
2017-Sep-07 20:30N 17°08' W 061°45'0 0.0
2017-Sep-07 20:00N 17°08' W 061°45'0 0.0
2017-Sep-07 19:30N 17°08' W 061°45'0 0.0
2017-Sep-07 19:00N 17°08' W 061°45'0 0.0
2017-Sep-07 18:30N 17°08' W 061°45'0 0.0
2017-Sep-07 18:00N 17°08' W 061°45'2 3.1
2017-Sep-07 17:30N 17°09' W 061°46'4 7.9
2017-Sep-07 17:00N 17°11' W 061°50'4 8.5
2017-Sep-07 16:30N 17°09' W 061°54'1 0.9
2017-Sep-07 15:58N 17°09' W 061°54'0 0.1
2017-Sep-07 15:28N 17°09' W 061°54'0 0.0
2017-Sep-07 15:01N 17°09' W 061°54'  
2017-Sep-03 04:24N 17°53' W 063°05'410.2
2017-Sep-03 03:59N 17°57' W 063°05'3 0.2
2017-Sep-02 09:39N 18°00' W 063°04'1 4.1
2017-Sep-02 09:27N 17°60' W 063°05'0 0.2
2017-Sep-02 09:00N 17°60' W 063°05'0 0.0
2017-Sep-02 08:30N 17°60' W 063°05'0 0.0
2017-Sep-02 08:00N 17°60' W 063°05'0 0.0
2017-Sep-02 07:30N 17°60' W 063°05'0 0.0
2017-Sep-02 07:00N 17°60' W 063°05'0 0.0
2017-Sep-02 06:30N 17°60' W 063°05'0 0.0
2017-Sep-02 06:00N 17°60' W 063°05'0 0.0
2017-Sep-02 05:30N 17°60' W 063°05'  
Track history (hours):
 
Tides and Currents Weather Stations Pressure Air Temp Water Temp Dewpoint Dewpoint Depression Visibility Wind Speed Wind Dir Waves Ship Positions

Nacc Panarea

Last reported at 2017-Sep-08 16:31 UTC. Time now 2017-Sep-20 01:54 UTC.
Position N 17°06' W 062°00'.
Warning: this ship's position is 11 days out of date.

Length 102 m; draft 4.4 m.

Type: Cargo ship. MMSI: 256740000.

Date/timePositionNaut miles runAvg speedWind from/ knotsBaromVisibWave heightAir tempDewpointWater temp
2017-Sep-08 16:31N 17°06' W 062°00'012.0
2017-Sep-08 16:30N 17°06' W 062°00'510.6
2017-Sep-08 16:00N 17°09' W 061°56'5 9.9
2017-Sep-08 15:30N 17°11' W 061°51'4 7.9
2017-Sep-08 15:00N 17°10' W 061°47'2 4.9
2017-Sep-08 14:30N 17°08' W 061°45'0 0.0
2017-Sep-08 14:00N 17°08' W 061°45'0 0.0
2017-Sep-08 13:30N 17°08' W 061°45'0 0.0
2017-Sep-08 13:00N 17°08' W 061°45'0 0.0
2017-Sep-08 12:30N 17°08' W 061°45'0 0.0
2017-Sep-08 12:00N 17°08' W 061°45'0 0.0
2017-Sep-08 11:30N 17°08' W 061°45'0 0.0
2017-Sep-08 11:00N 17°08' W 061°45'0 0.0
2017-Sep-08 10:30N 17°08' W 061°45'0 0.0
2017-Sep-08 09:57N 17°08' W 061°45'0 0.0
2017-Sep-08 09:30N 17°08' W 061°45'0 0.0
2017-Sep-08 09:00N 17°08' W 061°45'0 0.0
2017-Sep-08 08:30N 17°08' W 061°45'0 0.0
2017-Sep-08 08:00N 17°08' W 061°45'0 0.0
2017-Sep-08 07:30N 17°08' W 061°45'0 0.0
2017-Sep-08 06:57N 17°08' W 061°45'0 0.0
2017-Sep-08 06:30N 17°08' W 061°45'0 0.0
2017-Sep-08 06:00N 17°08' W 061°45'0 0.0
2017-Sep-08 05:27N 17°08' W 061°45'0 0.0
2017-Sep-08 05:00N 17°08' W 061°45'0 0.0
2017-Sep-08 04:30N 17°08' W 061°45'0 0.0
2017-Sep-08 04:00N 17°08' W 061°45'0 0.0
2017-Sep-08 03:30N 17°08' W 061°45'0 0.0
2017-Sep-08 03:00N 17°08' W 061°45'0 0.0
2017-Sep-08 02:30N 17°08' W 061°45'0 0.0
2017-Sep-08 01:57N 17°08' W 061°45'0 0.0
2017-Sep-08 01:30N 17°08' W 061°45'0 0.0
2017-Sep-08 01:00N 17°08' W 061°45'0 0.0
2017-Sep-08 00:30N 17°08' W 061°45'0 0.0
2017-Sep-08 00:00N 17°08' W 061°45'0 0.0
2017-Sep-07 23:30N 17°08' W 061°45'0 0.0
2017-Sep-07 22:57N 17°08' W 061°45'0 0.0
2017-Sep-07 22:30N 17°08' W 061°45'0 0.0
2017-Sep-07 22:00N 17°08' W 061°45'0 0.0
2017-Sep-07 21:30N 17°08' W 061°45'0 0.0
2017-Sep-07 21:00N 17°08' W 061°45'0 0.0
2017-Sep-07 20:30N 17°08' W 061°45'0 0.0
2017-Sep-07 20:00N 17°08' W 061°45'0 0.0
2017-Sep-07 19:30N 17°08' W 061°45'0 0.0
2017-Sep-07 19:00N 17°08' W 061°45'0 0.0
2017-Sep-07 18:30N 17°08' W 061°45'0 0.0
2017-Sep-07 18:00N 17°08' W 061°45'2 3.1
2017-Sep-07 17:30N 17°09' W 061°46'4 7.9
2017-Sep-07 17:00N 17°11' W 061°50'4 8.5
2017-Sep-07 16:30N 17°09' W 061°54'1 0.9
2017-Sep-07 15:58N 17°09' W 061°54'0 0.1
2017-Sep-07 15:28N 17°09' W 061°54'0 0.0
2017-Sep-07 15:01N 17°09' W 061°54'  
2017-Sep-03 04:24N 17°53' W 063°05'410.2
2017-Sep-03 03:59N 17°57' W 063°05'3 0.2
2017-Sep-02 09:39N 18°00' W 063°04'1 4.1
2017-Sep-02 09:27N 17°60' W 063°05'0 0.2
2017-Sep-02 09:00N 17°60' W 063°05'0 0.0
2017-Sep-02 08:30N 17°60' W 063°05'0 0.0
2017-Sep-02 08:00N 17°60' W 063°05'0 0.0
2017-Sep-02 07:30N 17°60' W 063°05'0 0.0
2017-Sep-02 07:00N 17°60' W 063°05'0 0.0
2017-Sep-02 06:30N 17°60' W 063°05'0 0.0
2017-Sep-02 06:00N 17°60' W 063°05'0 0.0
2017-Sep-02 05:30N 17°60' W 063°05'  

Dump ship's entire track history